Time;durP1;ratioP1;P1;durP2;ratioP2;P2;SDS_P1;SDS_P2;PMS_P1;PMS_P2;Temp;Humidity;BMP_temperature;BMP_pressure;BME280_temperature;BME280_humidity;BME280_pressure;Samples;Min_cycle;Max_cycle;Signal;HPM_P1;HPM_P2
2023/03/02 00:00:01;;;;;;;12.48;8.77;;;;;;;;;;5009058;28;20021;-68
2023/03/02 00:02:28;;;;;;;14.45;8.60;;;;;;;;;;4993067;28;20073;-68
2023/03/02 00:04:55;;;;;;;10.32;7.93;;;;;;;;;;5007997;28;20850;-68
2023/03/02 00:07:29;;;;;;;13.90;8.65;;;;;;;;;;5001255;28;20079;-69
2023/03/02 00:09:54;;;;;;;17.33;9.70;;;;;;;;;;5025667;28;20102;-69
2023/03/02 00:12:19;;;;;;;17.02;7.97;;;;;;;;;;5015538;28;20128;-69
2023/03/02 00:14:45;;;;;;;12.88;8.18;;;;;;;;;;5007440;28;20118;-69
2023/03/02 00:17:10;;;;;;;11.80;8.43;;;;;;;;;;5009074;28;20908;-69
2023/03/02 00:19:35;;;;;;;15.57;8.50;;;;;;;;;;4997669;28;20033;-69
2023/03/02 00:22:01;;;;;;;15.15;8.38;;;;;;;;;;5043220;28;20499;-68
2023/03/02 00:24:26;;;;;;;11.23;7.93;;;;;;;;;;5034759;28;21247;-70
2023/03/02 00:26:52;;;;;;;15.38;8.75;;;;;;;;;;5025439;28;20053;-69
2023/03/02 00:29:17;;;;;;;13.45;7.85;;;;;;;;;;5030031;28;20033;-69
2023/03/02 00:31:42;;;;;;;16.00;9.40;;;;;;;;;;5038108;28;20533;-69
2023/03/02 00:34:07;;;;;;;18.40;9.18;;;;;;;;;;5010021;28;20880;-69
2023/03/02 00:36:33;;;;;;;13.13;8.70;;;;;;;;;;5022095;28;20033;-69
2023/03/02 00:38:58;;;;;;;15.13;8.35;;;;;;;;;;5025051;28;20458;-69
2023/03/02 00:41:23;;;;;;;13.00;8.85;;;;;;;;;;5025354;28;20025;-69
2023/03/02 00:43:49;;;;;;;15.77;8.23;;;;;;;;;;5032000;28;20025;-69
2023/03/02 00:46:18;;;;;;;12.52;7.90;;;;;;;;;;5011006;28;20059;-69
2023/03/02 00:48:44;;;;;;;14.15;8.65;;;;;;;;;;5003681;28;20033;-68
2023/03/02 00:51:09;;;;;;;16.45;8.43;;;;;;;;;;5018400;28;20086;-69
2023/03/02 00:53:35;;;;;;;14.93;8.60;;;;;;;;;;5027014;28;20033;-69
2023/03/02 00:56:01;;;;;;;18.70;9.13;;;;;;;;;;5039885;28;20643;-68
2023/03/02 00:58:27;;;;;;;12.27;8.25;;;;;;;;;;5025876;28;20021;-69
2023/03/02 01:00:52;;;;;;;13.80;8.82;;;;;;;;;;5016567;28;20944;-69
2023/03/02 01:03:17;;;;;;;13.93;8.77;;;;;;;;;;5012880;28;20021;-68
2023/03/02 01:05:43;;;;;;;13.73;9.15;;;;;;;;;;5011658;28;20860;-69
2023/03/02 01:08:08;;;;;;;13.15;7.85;;;;;;;;;;5015615;28;20179;-68
2023/03/02 01:10:33;;;;;;;14.75;8.50;;;;;;;;;;5014201;28;20028;-69
2023/03/02 01:12:59;;;;;;;14.82;8.40;;;;;;;;;;5031349;28;20028;-68
2023/03/02 01:15:24;;;;;;;12.93;8.88;;;;;;;;;;5014698;28;20069;-68
2023/03/02 01:17:49;;;;;;;15.65;9.10;;;;;;;;;;5013551;28;20029;-68
2023/03/02 01:20:15;;;;;;;13.55;7.63;;;;;;;;;;5002010;28;20030;-70
2023/03/02 01:22:42;;;;;;;13.65;9.07;;;;;;;;;;5008317;28;20036;-69
2023/03/02 01:25:07;;;;;;;15.48;8.30;;;;;;;;;;4994429;28;20065;-69
2023/03/02 01:27:32;;;;;;;14.55;8.85;;;;;;;;;;5010630;28;20479;-69
2023/03/02 01:29:58;;;;;;;13.63;8.35;;;;;;;;;;4995319;28;20037;-69
2023/03/02 01:32:23;;;;;;;17.20;9.85;;;;;;;;;;5008762;28;20040;-69
2023/03/02 01:34:48;;;;;;;12.40;8.68;;;;;;;;;;5005393;28;20874;-68
2023/03/02 01:37:13;;;;;;;13.55;8.93;;;;;;;;;;5005070;28;20898;-68
2023/03/02 01:39:39;;;;;;;13.23;8.55;;;;;;;;;;5000321;28;20139;-69
2023/03/02 01:42:04;;;;;;;16.70;9.23;;;;;;;;;;5016530;28;20966;-69
2023/03/02 01:44:35;;;;;;;12.73;8.50;;;;;;;;;;5016328;28;20886;-69
2023/03/02 01:47:05;;;;;;;15.05;9.05;;;;;;;;;;5001784;28;20025;-69
2023/03/02 01:49:34;;;;;;;13.95;8.82;;;;;;;;;;5006390;28;20036;-69
2023/03/02 01:51:59;;;;;;;15.57;8.70;;;;;;;;;;5014569;28;20036;-69
2023/03/02 01:54:25;;;;;;;14.52;8.50;;;;;;;;;;5020524;28;20029;-69
2023/03/02 01:56:52;;;;;;;19.77;9.38;;;;;;;;;;5029344;28;20105;-69
2023/03/02 01:59:20;;;;;;;15.73;9.73;;;;;;;;;;5014049;28;20263;-69
2023/03/02 02:01:49;;;;;;;17.38;10.05;;;;;;;;;;5017720;28;20234;-68
2023/03/02 02:04:15;;;;;;;15.95;9.68;;;;;;;;;;5021304;28;20191;-69
2023/03/02 02:06:43;;;;;;;17.65;9.10;;;;;;;;;;5033122;28;20849;-69
2023/03/02 02:09:11;;;;;;;14.88;9.75;;;;;;;;;;5008219;28;20025;-69
2023/03/02 02:11:37;;;;;;;14.52;9.13;;;;;;;;;;5006968;28;20025;-70
2023/03/02 02:14:02;;;;;;;12.38;8.60;;;;;;;;;;5015010;28;20099;-69
2023/03/02 02:16:29;;;;;;;11.75;8.63;;;;;;;;;;5004248;28;20087;-68
2023/03/02 02:18:55;;;;;;;13.73;8.52;;;;;;;;;;5010421;28;21022;-69
2023/03/02 02:21:20;;;;;;;14.00;9.68;;;;;;;;;;5010268;28;20029;-68
2023/03/02 02:24:09;;;;;;;14.73;9.90;;;;;;;;;;5032290;28;20029;-69
2023/03/02 02:26:37;;;;;;;15.23;9.15;;;;;;;;;;5003788;28;20055;-69
2023/03/02 02:29:11;;;;;;;16.13;9.35;;;;;;;;;;5039046;28;20022;-69
2023/03/02 02:31:43;;;;;;;15.35;9.45;;;;;;;;;;5003124;28;20186;-70
2023/03/02 02:34:11;;;;;;;14.75;9.57;;;;;;;;;;5010463;28;20814;-69
2023/03/02 02:36:38;;;;;;;16.85;9.25;;;;;;;;;;5009169;28;20057;-69
2023/03/02 02:39:05;;;;;;;13.05;9.63;;;;;;;;;;5002367;28;20083;-69
2023/03/02 02:41:34;;;;;;;16.40;9.85;;;;;;;;;;4995940;28;20132;-69
2023/03/02 02:43:59;;;;;;;18.23;9.85;;;;;;;;;;5007318;28;20048;-70
2023/03/02 02:46:24;;;;;;;15.10;9.60;;;;;;;;;;5002923;28;20527;-70
2023/03/02 02:48:50;;;;;;;15.00;9.57;;;;;;;;;;5008870;28;20843;-70
2023/03/02 02:51:24;;;;;;;14.50;9.65;;;;;;;;;;5003862;28;20018;-70
2023/03/02 02:53:49;;;;;;;17.08;9.90;;;;;;;;;;5003204;28;20144;-69
2023/03/02 02:56:16;;;;;;;17.25;9.15;;;;;;;;;;5020829;28;21022;-70
2023/03/02 02:58:50;;;;;;;17.98;9.85;;;;;;;;;;5018794;28;20024;-70
2023/03/02 03:01:16;;;;;;;13.80;9.13;;;;;;;;;;5039009;28;20025;-69
2023/03/02 03:03:45;;;;;;;13.77;9.50;;;;;;;;;;5021824;28;20823;-69
2023/03/02 03:06:16;;;;;;;15.23;9.73;;;;;;;;;;5021272;28;20014;-68
2023/03/02 03:08:47;;;;;;;15.98;9.25;;;;;;;;;;5022309;28;20029;-69
2023/03/02 03:11:14;;;;;;;15.50;8.93;;;;;;;;;;5012247;28;20136;-68
2023/03/02 03:13:41;;;;;;;16.48;9.40;;;;;;;;;;5027172;28;20868;-68
2023/03/02 03:16:08;;;;;;;14.10;9.25;;;;;;;;;;5025274;28;20025;-69
2023/03/02 03:18:33;;;;;;;14.15;8.85;;;;;;;;;;5027207;28;20057;-69
2023/03/02 03:20:59;;;;;;;16.75;9.18;;;;;;;;;;5025819;28;20072;-69
2023/03/02 03:23:24;;;;;;;16.23;9.38;;;;;;;;;;4996047;28;20986;-69
2023/03/02 03:25:49;;;;;;;12.77;8.98;;;;;;;;;;5011984;28;20033;-69
2023/03/02 03:28:14;;;;;;;13.23;9.15;;;;;;;;;;4996768;28;20017;-69
2023/03/02 03:30:40;;;;;;;16.40;9.50;;;;;;;;;;4999570;28;20084;-69
2023/03/02 03:33:05;;;;;;;19.23;10.73;;;;;;;;;;5011729;28;20056;-69
2023/03/02 03:35:30;;;;;;;14.77;9.80;;;;;;;;;;5007720;28;20036;-68
2023/03/02 03:37:56;;;;;;;15.52;9.88;;;;;;;;;;5006341;28;20481;-68
2023/03/02 03:40:21;;;;;;;13.75;8.35;;;;;;;;;;5002422;28;20021;-69
2023/03/02 03:42:46;;;;;;;15.98;10.77;;;;;;;;;;4999992;28;20789;-69
2023/03/02 03:45:12;;;;;;;20.08;10.27;;;;;;;;;;5012778;28;20016;-69
2023/03/02 03:47:37;;;;;;;12.63;9.35;;;;;;;;;;5013305;28;20021;-69
2023/03/02 03:50:02;;;;;;;14.50;9.32;;;;;;;;;;5017912;28;20980;-69
2023/03/02 03:52:31;;;;;;;15.40;10.27;;;;;;;;;;5017133;28;20028;-68
2023/03/02 03:54:57;;;;;;;16.90;9.77;;;;;;;;;;5027784;28;20855;-69
2023/03/02 03:57:22;;;;;;;17.95;10.25;;;;;;;;;;5027379;28;20018;-69
2023/03/02 03:59:47;;;;;;;15.77;10.32;;;;;;;;;;5020468;28;20616;-68
2023/03/02 04:02:13;;;;;;;16.88;10.13;;;;;;;;;;5027872;28;20483;-69
2023/03/02 04:04:38;;;;;;;15.13;10.93;;;;;;;;;;5033091;28;20128;-69
2023/03/02 04:07:03;;;;;;;15.40;10.27;;;;;;;;;;5019729;28;20052;-69
2023/03/02 04:09:31;;;;;;;18.45;11.23;;;;;;;;;;5017375;28;20048;-68
2023/03/02 04:11:56;;;;;;;14.48;10.70;;;;;;;;;;5020795;28;20028;-68
2023/03/02 04:14:22;;;;;;;16.45;10.90;;;;;;;;;;5043240;28;20017;-68
2023/03/02 04:16:47;;;;;;;16.90;10.25;;;;;;;;;;5025234;28;20032;-68
2023/03/02 04:19:13;;;;;;;16.65;11.30;;;;;;;;;;5021218;28;20035;-68
2023/03/02 04:21:40;;;;;;;15.18;10.10;;;;;;;;;;5038396;28;20676;-68
2023/03/02 04:24:05;;;;;;;16.05;11.13;;;;;;;;;;5018266;28;20036;-68
2023/03/02 04:26:31;;;;;;;16.33;10.55;;;;;;;;;;5008136;28;20017;-68
2023/03/02 04:28:56;;;;;;;19.38;10.55;;;;;;;;;;5003404;28;20865;-68
2023/03/02 04:31:22;;;;;;;15.15;10.35;;;;;;;;;;4998098;28;20021;-69
2023/03/02 04:33:47;;;;;;;15.20;9.65;;;;;;;;;;5001432;28;20024;-68
2023/03/02 04:36:12;;;;;;;14.80;10.05;;;;;;;;;;5000116;28;20025;-68
2023/03/02 04:38:37;;;;;;;19.55;10.30;;;;;;;;;;5011956;28;20570;-68
2023/03/02 04:41:03;;;;;;;17.95;11.27;;;;;;;;;;5015603;28;20036;-68
2023/03/02 04:43:28;;;;;;;14.73;9.73;;;;;;;;;;5006149;28;20029;-68
2023/03/02 04:45:53;;;;;;;16.42;10.65;;;;;;;;;;5010437;28;20037;-68
2023/03/02 04:48:19;;;;;;;14.98;9.93;;;;;;;;;;5012561;28;20063;-68
2023/03/02 04:50:45;;;;;;;13.68;10.00;;;;;;;;;;5024573;28;20024;-68
2023/03/02 04:53:11;;;;;;;15.23;9.40;;;;;;;;;;5045674;28;20024;-68
2023/03/02 04:55:36;;;;;;;19.60;10.65;;;;;;;;;;5000854;28;20133;-68
2023/03/02 04:58:01;;;;;;;19.67;11.57;;;;;;;;;;5002059;28;20099;-68
2023/03/02 05:00:27;;;;;;;18.27;10.23;;;;;;;;;;5002989;28;20029;-68
2023/03/02 05:02:53;;;;;;;18.30;10.77;;;;;;;;;;5002821;28;20051;-68
2023/03/02 05:05:20;;;;;;;16.60;10.98;;;;;;;;;;5004880;28;20092;-68
2023/03/02 05:07:45;;;;;;;14.40;10.10;;;;;;;;;;5039976;28;20914;-67
2023/03/02 05:10:11;;;;;;;16.45;10.52;;;;;;;;;;5031488;28;20032;-67
2023/03/02 05:12:53;;;;;;;17.13;10.68;;;;;;;;;;5023006;28;20068;-67
2023/03/02 05:15:22;;;;;;;17.85;10.73;;;;;;;;;;5009243;28;20122;-67
2023/03/02 05:17:48;;;;;;;19.98;11.13;;;;;;;;;;5053338;28;20107;-67
2023/03/02 05:20:13;;;;;;;18.20;10.63;;;;;;;;;;5023898;28;20128;-67
2023/03/02 05:22:38;;;;;;;17.80;11.43;;;;;;;;;;5018053;28;20013;-67
2023/03/02 05:25:04;;;;;;;14.23;10.35;;;;;;;;;;5028449;28;20484;-67
2023/03/02 05:27:29;;;;;;;17.05;11.02;;;;;;;;;;5046509;28;20013;-67
2023/03/02 05:29:54;;;;;;;15.70;10.73;;;;;;;;;;5016289;28;20045;-67
2023/03/02 05:32:19;;;;;;;15.73;10.02;;;;;;;;;;5034854;28;20481;-68
2023/03/02 05:34:45;;;;;;;18.25;10.80;;;;;;;;;;5051247;28;20053;-67
2023/03/02 05:37:10;;;;;;;18.13;10.38;;;;;;;;;;5018979;28;20029;-67
2023/03/02 05:39:35;;;;;;;16.70;11.20;;;;;;;;;;5018037;28;20124;-67
2023/03/02 05:42:01;;;;;;;16.80;10.10;;;;;;;;;;5019531;28;20021;-68
2023/03/02 05:44:26;;;;;;;14.65;10.60;;;;;;;;;;5040722;28;20497;-67
2023/03/02 05:46:51;;;;;;;15.43;10.18;;;;;;;;;;5040819;28;20025;-67
2023/03/02 05:49:17;;;;;;;15.02;9.32;;;;;;;;;;5013991;28;20040;-67
2023/03/02 05:51:42;;;;;;;20.17;10.48;;;;;;;;;;5035735;28;20029;-67
2023/03/02 05:54:07;;;;;;;13.25;9.75;;;;;;;;;;5042941;28;20020;-67
2023/03/02 05:56:32;;;;;;;16.77;9.75;;;;;;;;;;5018530;28;20033;-68
2023/03/02 05:58:58;;;;;;;13.70;9.35;;;;;;;;;;5023398;28;20037;-68
2023/03/02 06:01:23;;;;;;;14.20;10.30;;;;;;;;;;5049492;28;20514;-68
2023/03/02 06:03:48;;;;;;;17.15;10.50;;;;;;;;;;5050361;28;20025;-68
2023/03/02 06:06:14;;;;;;;13.80;9.57;;;;;;;;;;5040646;28;20555;-68
2023/03/02 06:08:40;;;;;;;13.98;9.32;;;;;;;;;;5021280;28;20087;-67
2023/03/02 06:11:06;;;;;;;18.42;10.25;;;;;;;;;;5016058;28;20118;-68
2023/03/02 06:13:31;;;;;;;15.63;9.85;;;;;;;;;;5016892;28;20491;-67
2023/03/02 06:15:57;;;;;;;19.15;10.43;;;;;;;;;;5029383;28;20941;-67
2023/03/02 06:18:22;;;;;;;16.60;9.43;;;;;;;;;;5019333;28;20025;-67
2023/03/02 06:20:48;;;;;;;17.40;10.55;;;;;;;;;;5006485;28;20021;-67
2023/03/02 06:23:13;;;;;;;13.60;9.85;;;;;;;;;;5047665;28;20048;-68
2023/03/02 06:25:42;;;;;;;14.93;9.82;;;;;;;;;;5018673;28;20144;-68
2023/03/02 06:28:07;;;;;;;13.02;8.93;;;;;;;;;;5002127;28;20025;-68
2023/03/02 06:30:33;;;;;;;16.85;10.63;;;;;;;;;;5009561;28;20041;-68
2023/03/02 06:32:58;;;;;;;14.00;9.57;;;;;;;;;;5012059;28;20148;-68
2023/03/02 06:35:24;;;;;;;14.85;8.73;;;;;;;;;;5040736;28;20112;-68
2023/03/02 06:37:49;;;;;;;19.15;9.10;;;;;;;;;;5026093;28;20029;-68
2023/03/02 06:40:14;;;;;;;15.48;9.73;;;;;;;;;;5041225;28;20032;-68
2023/03/02 06:42:40;;;;;;;17.83;8.95;;;;;;;;;;5043255;28;20475;-68
2023/03/02 06:45:06;;;;;;;16.20;8.93;;;;;;;;;;5043053;28;20029;-68
2023/03/02 06:47:32;;;;;;;26.10;10.23;;;;;;;;;;5007683;28;20094;-69
2023/03/02 06:49:57;;;;;;;15.02;8.25;;;;;;;;;;5006573;28;20017;-68
2023/03/02 06:52:22;;;;;;;17.98;9.68;;;;;;;;;;5007704;28;20024;-68
2023/03/02 06:54:48;;;;;;;17.67;9.93;;;;;;;;;;5011650;28;20021;-69
2023/03/02 06:57:13;;;;;;;13.90;8.68;;;;;;;;;;4994178;28;20288;-68
2023/03/02 06:59:38;;;;;;;13.05;8.98;;;;;;;;;;4992712;28;20036;-68
2023/03/02 07:02:03;;;;;;;12.60;8.57;;;;;;;;;;5000978;28;20860;-68
2023/03/02 07:04:29;;;;;;;13.40;8.40;;;;;;;;;;5007127;28;20036;-68
2023/03/02 07:06:54;;;;;;;14.95;8.98;;;;;;;;;;5004515;28;21015;-68
2023/03/02 07:09:20;;;;;;;14.98;9.27;;;;;;;;;;5007329;28;20191;-68
2023/03/02 07:11:45;;;;;;;12.27;8.80;;;;;;;;;;5007620;28;20946;-68
2023/03/02 07:14:10;;;;;;;13.10;8.98;;;;;;;;;;5007662;28;20794;-68
2023/03/02 07:16:35;;;;;;;13.20;8.75;;;;;;;;;;5005389;28;20101;-68
2023/03/02 07:19:01;;;;;;;13.95;9.32;;;;;;;;;;5009741;28;20958;-68
2023/03/02 07:21:26;;;;;;;11.95;7.88;;;;;;;;;;5006314;28;20179;-68
2023/03/02 07:23:51;;;;;;;14.32;8.35;;;;;;;;;;5007968;28;20033;-69
2023/03/02 07:26:18;;;;;;;17.65;8.95;;;;;;;;;;5006897;28;20791;-69
2023/03/02 07:28:43;;;;;;;13.18;8.55;;;;;;;;;;5007433;28;20830;-67
2023/03/02 07:31:09;;;;;;;14.07;8.82;;;;;;;;;;5010874;28;20059;-67
2023/03/02 07:33:34;;;;;;;13.10;8.68;;;;;;;;;;5007303;28;20026;-67
2023/03/02 07:36:00;;;;;;;14.95;9.07;;;;;;;;;;5009740;28;20917;-68
2023/03/02 07:38:25;;;;;;;15.70;9.13;;;;;;;;;;5008711;28;20102;-67
2023/03/02 07:40:51;;;;;;;15.57;8.13;;;;;;;;;;5010135;28;20121;-68
2023/03/02 07:43:16;;;;;;;15.48;8.75;;;;;;;;;;5008663;28;20017;-67
2023/03/02 07:45:41;;;;;;;10.15;7.63;;;;;;;;;;5004575;28;20849;-68
2023/03/02 07:48:07;;;;;;;15.27;8.57;;;;;;;;;;5002244;28;20032;-67
2023/03/02 07:50:32;;;;;;;13.95;8.35;;;;;;;;;;5007224;28;20071;-68
2023/03/02 07:52:57;;;;;;;13.43;7.93;;;;;;;;;;5006591;28;20087;-68
2023/03/02 07:55:22;;;;;;;11.77;8.00;;;;;;;;;;5011957;28;20866;-68
2023/03/02 07:57:48;;;;;;;18.02;8.32;;;;;;;;;;5010781;28;20143;-68
2023/03/02 08:00:13;;;;;;;14.93;7.95;;;;;;;;;;5009226;28;20286;-68
2023/03/02 08:02:39;;;;;;;9.70;6.72;;;;;;;;;;5014497;28;20035;-67
2023/03/02 08:05:05;;;;;;;12.05;7.70;;;;;;;;;;4996846;28;20029;-68
2023/03/02 08:07:30;;;;;;;14.18;7.97;;;;;;;;;;5010935;28;20278;-68
2023/03/02 08:09:56;;;;;;;11.23;7.43;;;;;;;;;;5012811;28;20124;-68
2023/03/02 08:12:22;;;;;;;14.57;8.40;;;;;;;;;;4998228;28;20021;-70
2023/03/02 08:14:47;;;;;;;12.30;7.32;;;;;;;;;;5007123;28;20064;-70
2023/03/02 08:17:12;;;;;;;18.83;8.35;;;;;;;;;;5004266;28;21100;-70
2023/03/02 08:19:37;;;;;;;16.25;8.57;;;;;;;;;;4995754;28;20066;-69
2023/03/02 08:22:03;;;;;;;15.23;7.68;;;;;;;;;;5004276;28;20926;-70
2023/03/02 08:24:28;;;;;;;13.43;8.32;;;;;;;;;;5013785;28;20017;-69
2023/03/02 08:26:53;;;;;;;11.88;7.13;;;;;;;;;;5007199;28;20025;-70
2023/03/02 08:29:19;;;;;;;17.65;7.85;;;;;;;;;;5008912;28;20017;-70
2023/03/02 08:31:44;;;;;;;13.13;7.65;;;;;;;;;;5008785;28;21153;-69
2023/03/02 08:34:10;;;;;;;11.98;7.30;;;;;;;;;;5009359;28;20028;-70
2023/03/02 08:36:35;;;;;;;13.30;7.72;;;;;;;;;;5008843;28;20238;-69
2023/03/02 08:39:00;;;;;;;9.77;7.47;;;;;;;;;;5009061;28;20565;-70
2023/03/02 08:41:26;;;;;;;14.27;7.70;;;;;;;;;;5008183;28;20207;-69
2023/03/02 08:43:53;;;;;;;12.43;7.43;;;;;;;;;;5008843;28;20032;-69
2023/03/02 08:46:18;;;;;;;11.95;7.90;;;;;;;;;;5007875;28;20024;-70
2023/03/02 08:48:44;;;;;;;13.82;8.35;;;;;;;;;;5001508;28;20187;-70
2023/03/02 08:51:11;;;;;;;10.27;7.55;;;;;;;;;;5002498;28;20942;-70
2023/03/02 08:53:38;;;;;;;12.68;7.90;;;;;;;;;;5009506;28;20029;-70
2023/03/02 08:56:06;;;;;;;15.18;8.75;;;;;;;;;;5008345;28;20029;-69
2023/03/02 08:58:31;;;;;;;14.13;8.05;;;;;;;;;;5022258;28;20029;-69
2023/03/02 09:00:56;;;;;;;14.02;8.43;;;;;;;;;;5017161;28;20056;-69
2023/03/02 09:03:22;;;;;;;12.57;7.47;;;;;;;;;;5011668;28;20052;-69
2023/03/02 09:05:47;;;;;;;11.13;7.72;;;;;;;;;;5015131;28;20242;-69
2023/03/02 09:08:13;;;;;;;13.98;7.85;;;;;;;;;;5012120;28;20025;-69
2023/03/02 09:10:38;;;;;;;15.23;8.73;;;;;;;;;;5013764;28;20025;-69
2023/03/02 09:13:04;;;;;;;16.30;8.07;;;;;;;;;;5007090;28;20028;-70
2023/03/02 09:15:29;;;;;;;12.40;8.05;;;;;;;;;;5011285;28;20025;-69
2023/03/02 09:17:54;;;;;;;16.58;8.73;;;;;;;;;;5003718;28;20045;-69
2023/03/02 09:20:20;;;;;;;13.88;7.32;;;;;;;;;;4999394;28;20045;-69
2023/03/02 09:22:49;;;;;;;14.52;8.20;;;;;;;;;;5005806;28;20960;-70
2023/03/02 09:25:15;;;;;;;13.98;7.95;;;;;;;;;;5008347;28;20017;-70
2023/03/02 09:27:40;;;;;;;20.23;8.20;;;;;;;;;;5006420;28;20036;-69
2023/03/02 09:30:06;;;;;;;17.02;8.80;;;;;;;;;;5006884;28;20061;-70
2023/03/02 09:32:31;;;;;;;10.07;6.55;;;;;;;;;;5006714;28;20024;-70
2023/03/02 09:34:57;;;;;;;16.00;7.53;;;;;;;;;;5008232;28;20079;-70
2023/03/02 09:37:22;;;;;;;13.63;8.20;;;;;;;;;;5031271;28;20037;-70
2023/03/02 09:39:47;;;;;;;14.25;8.00;;;;;;;;;;5041018;28;20055;-69
2023/03/02 09:42:25;;;;;;;21.05;7.68;;;;;;;;;;5012807;28;20840;-70
2023/03/02 09:45:01;;;;;;;14.60;8.00;;;;;;;;;;5036077;28;20037;-69
2023/03/02 09:47:30;;;;;;;16.58;7.28;;;;;;;;;;5016999;28;20033;-70
2023/03/02 09:50:04;;;;;;;19.13;7.43;;;;;;;;;;5030635;28;20032;-70
2023/03/02 09:52:39;;;;;;;10.88;7.55;;;;;;;;;;5034106;28;20025;-69
2023/03/02 09:55:16;;;;;;;14.82;7.60;;;;;;;;;;5031210;28;20021;-70
2023/03/02 09:57:42;;;;;;;15.30;7.30;;;;;;;;;;5027056;28;20041;-69
2023/03/02 10:00:12;;;;;;;11.18;7.25;;;;;;;;;;5025812;28;20086;-69
2023/03/02 10:02:52;;;;;;;11.10;7.22;;;;;;;;;;5032870;28;20029;-69
2023/03/02 10:05:26;;;;;;;14.25;7.22;;;;;;;;;;5041693;28;20055;-70
2023/03/02 10:07:51;;;;;;;12.95;7.60;;;;;;;;;;5019345;28;20028;-71
2023/03/02 10:10:17;;;;;;;10.63;7.03;;;;;;;;;;5022594;28;20021;-70
2023/03/02 10:13:02;;;;;;;10.73;6.78;;;;;;;;;;5023848;28;20032;-70
2023/03/02 10:15:33;;;;;;;10.70;7.32;;;;;;;;;;5036293;28;20072;-69
2023/03/02 10:18:19;;;;;;;11.13;6.82;;;;;;;;;;5031934;28;20033;-69
2023/03/02 10:20:47;;;;;;;11.73;7.15;;;;;;;;;;5025163;28;20048;-70
2023/03/02 10:23:15;;;;;;;17.60;7.85;;;;;;;;;;5032417;28;20125;-69
2023/03/02 10:25:43;;;;;;;14.20;7.30;;;;;;;;;;5029359;28;20138;-70
2023/03/02 10:28:18;;;;;;;16.80;7.28;;;;;;;;;;5026195;28;20021;-70
2023/03/02 10:30:43;;;;;;;;;;;;;;;;;;5025281;28;20029;-70
2023/03/02 10:33:11;;;;;;;9.65;6.47;;;;;;;;;;5011565;28;19924;-70
2023/03/02 10:35:37;;;;;;;13.45;8.27;;;;;;;;;;5031236;28;20827;-69
2023/03/02 10:38:21;;;;;;;12.25;7.40;;;;;;;;;;5030631;28;20028;-69
2023/03/02 10:40:59;;;;;;;15.02;7.78;;;;;;;;;;5013701;28;20396;-70
2023/03/02 10:43:47;;;;;;;14.05;7.85;;;;;;;;;;5028882;28;20102;-70
2023/03/02 10:46:13;;;;;;;21.90;8.35;;;;;;;;;;5029076;28;20033;-69
2023/03/02 10:49:00;;;;;;;12.98;7.28;;;;;;;;;;5027964;28;20095;-69
2023/03/02 10:51:29;;;;;;;11.00;6.65;;;;;;;;;;5029168;28;20033;-68
2023/03/02 10:54:04;;;;;;;14.82;8.13;;;;;;;;;;5037397;28;20111;-70
2023/03/02 10:56:30;;;;;;;13.35;7.60;;;;;;;;;;5024884;28;20036;-69
2023/03/02 10:59:01;;;;;;;12.80;7.47;;;;;;;;;;5011585;28;20030;-70
2023/03/02 11:01:27;;;;;;;14.57;7.50;;;;;;;;;;5027645;28;20021;-70
2023/03/02 11:03:57;;;;;;;17.45;7.60;;;;;;;;;;5004667;28;20924;-70
2023/03/02 11:06:23;;;;;;;11.02;7.65;;;;;;;;;;5017038;28;20027;-70
2023/03/02 11:09:08;;;;;;;18.85;8.07;;;;;;;;;;5003673;28;20033;-70
2023/03/02 11:11:35;;;;;;;14.60;7.97;;;;;;;;;;5011341;28;20050;-69
2023/03/02 11:14:07;;;;;;;19.58;7.97;;;;;;;;;;5015191;28;20029;-68
2023/03/02 11:16:32;;;;;;;9.65;6.63;;;;;;;;;;5009362;28;20087;-69
2023/03/02 11:19:01;;;;;;;10.57;6.85;;;;;;;;;;5021608;28;20033;-70
2023/03/02 11:21:31;;;;;;;13.10;7.78;;;;;;;;;;5024433;28;20106;-69
2023/03/02 11:24:15;;;;;;;14.52;7.40;;;;;;;;;;5022845;28;20029;-69
2023/03/02 11:26:46;;;;;;;16.48;8.05;;;;;;;;;;5022121;28;20139;-70
2023/03/02 11:29:31;;;;;;;12.30;7.80;;;;;;;;;;5022991;28;20370;-70
2023/03/02 11:31:59;;;;;;;15.05;7.97;;;;;;;;;;5020441;28;20033;-70
2023/03/02 11:34:24;;;;;;;15.38;7.47;;;;;;;;;;5029878;28;20546;-69
2023/03/02 11:36:55;;;;;;;11.07;7.15;;;;;;;;;;5020677;28;20057;-71
2023/03/02 11:39:23;;;;;;;11.38;6.93;;;;;;;;;;5018222;28;20083;-69
2023/03/02 11:41:49;;;;;;;12.70;7.00;;;;;;;;;;5019260;28;20029;-69
2023/03/02 11:44:19;;;;;;;11.52;7.57;;;;;;;;;;5027395;28;20029;-70
2023/03/02 11:46:49;;;;;;;10.23;7.03;;;;;;;;;;5020238;28;20020;-69
2023/03/02 11:49:18;;;;;;;11.85;7.70;;;;;;;;;;5024927;28;20032;-70
2023/03/02 11:51:49;;;;;;;12.23;7.78;;;;;;;;;;5013302;28;20404;-70
2023/03/02 11:54:14;;;;;;;17.52;7.97;;;;;;;;;;5002809;28;20044;-70
2023/03/02 11:56:40;;;;;;;12.23;7.50;;;;;;;;;;5007249;28;20025;-70
2023/03/02 11:59:10;;;;;;;14.23;7.13;;;;;;;;;;5006084;28;20060;-69
2023/03/02 12:01:37;;;;;;;11.75;7.35;;;;;;;;;;5004641;28;20061;-70
2023/03/02 12:04:07;;;;;;;13.30;6.65;;;;;;;;;;5007701;28;20060;-69
2023/03/02 12:06:39;;;;;;;12.32;7.40;;;;;;;;;;5019923;28;20029;-69
2023/03/02 12:09:10;;;;;;;11.00;7.47;;;;;;;;;;5019519;28;20079;-70
2023/03/02 12:11:37;;;;;;;9.43;6.82;;;;;;;;;;5004625;28;20044;-69
2023/03/02 12:14:04;;;;;;;12.70;7.35;;;;;;;;;;5010269;28;20032;-70
2023/03/02 12:16:36;;;;;;;9.15;5.63;;;;;;;;;;5014765;28;20036;-70
2023/03/02 12:19:21;;;;;;;10.48;6.75;;;;;;;;;;5016859;28;20021;-68
2023/03/02 12:21:55;;;;;;;12.75;7.10;;;;;;;;;;5015108;28;20033;-70
2023/03/02 12:24:31;;;;;;;11.48;6.90;;;;;;;;;;5024270;28;20044;-70
2023/03/02 12:27:01;;;;;;;10.07;7.07;;;;;;;;;;5021020;28;20124;-70
2023/03/02 12:29:36;;;;;;;9.88;7.05;;;;;;;;;;5030529;28;20028;-70
2023/03/02 12:32:09;;;;;;;13.88;6.45;;;;;;;;;;5019797;28;20030;-70
2023/03/02 12:34:36;;;;;;;11.50;6.88;;;;;;;;;;5023564;28;20099;-70
2023/03/02 12:37:07;;;;;;;12.25;6.32;;;;;;;;;;5027841;28;20664;-70
2023/03/02 12:39:43;;;;;;;14.07;6.75;;;;;;;;;;5043665;28;20153;-70
2023/03/02 12:42:27;;;;;;;15.00;8.02;;;;;;;;;;5015262;28;20029;-70
2023/03/02 12:45:01;;;;;;;10.07;6.30;;;;;;;;;;5015886;28;20124;-71
2023/03/02 12:47:28;;;;;;;12.20;7.35;;;;;;;;;;5023183;28;20029;-69
2023/03/02 12:50:04;;;;;;;11.85;7.65;;;;;;;;;;5023856;28;20062;-69
2023/03/02 12:52:34;;;;;;;13.10;6.40;;;;;;;;;;5031391;28;20025;-70
2023/03/02 12:55:01;;;;;;;10.50;6.97;;;;;;;;;;5019163;28;20033;-69
2023/03/02 12:57:26;;;;;;;8.07;6.10;;;;;;;;;;5021391;28;20943;-70
2023/03/02 12:59:57;;;;;;;11.07;6.88;;;;;;;;;;5029504;28;20028;-70
2023/03/02 13:02:23;;;;;;;10.38;6.97;;;;;;;;;;5028294;28;20151;-70
2023/03/02 13:04:55;;;;;;;9.52;6.40;;;;;;;;;;5013681;28;20037;-70
2023/03/02 13:07:35;;;;;;;12.10;7.30;;;;;;;;;;5012216;28;20823;-69
2023/03/02 13:10:02;;;;;;;10.23;7.53;;;;;;;;;;5021583;28;20032;-70
2023/03/02 13:12:28;;;;;;;10.55;7.03;;;;;;;;;;5009623;28;20054;-69
2023/03/02 13:14:54;;;;;;;11.98;7.15;;;;;;;;;;5014170;28;20090;-69
2023/03/02 13:17:21;;;;;;;14.40;7.47;;;;;;;;;;5018156;28;20029;-70
2023/03/02 13:19:49;;;;;;;12.90;7.30;;;;;;;;;;5024825;28;20028;-68
2023/03/02 13:22:14;;;;;;;9.82;7.05;;;;;;;;;;5017879;28;20028;-69
2023/03/02 13:24:45;;;;;;;11.57;6.88;;;;;;;;;;5014648;28;20036;-69
2023/03/02 13:27:20;;;;;;;10.80;6.55;;;;;;;;;;5024833;28;20029;-70
2023/03/02 13:29:46;;;;;;;16.45;6.20;;;;;;;;;;5020065;28;20033;-69
2023/03/02 13:32:14;;;;;;;14.63;7.28;;;;;;;;;;5013410;28;20037;-69
2023/03/02 13:34:44;;;;;;;10.20;6.75;;;;;;;;;;5012091;28;20136;-69
2023/03/02 13:37:32;;;;;;;9.10;6.45;;;;;;;;;;5026966;28;20021;-69
2023/03/02 13:39:59;;;;;;;9.32;6.30;;;;;;;;;;5023663;28;20032;-69
2023/03/02 13:42:26;;;;;;;12.00;7.45;;;;;;;;;;5027313;28;20021;-69
2023/03/02 13:44:51;;;;;;;11.75;6.97;;;;;;;;;;5011252;28;20025;-68
2023/03/02 13:47:20;;;;;;;10.20;6.93;;;;;;;;;;5010938;28;20028;-68
2023/03/02 13:49:45;;;;;;;13.60;7.15;;;;;;;;;;5010831;28;20127;-69
2023/03/02 13:52:28;;;;;;;10.60;6.68;;;;;;;;;;5020224;28;20974;-68
2023/03/02 13:54:53;;;;;;;6.43;5.55;;;;;;;;;;5010004;28;20036;-68
2023/03/02 13:57:37;;;;;;;11.57;6.78;;;;;;;;;;5014864;28;20818;-69
2023/03/02 14:00:03;;;;;;;16.85;7.00;;;;;;;;;;5023187;28;20033;-69
2023/03/02 14:02:29;;;;;;;8.25;5.88;;;;;;;;;;5013239;28;20017;-69
2023/03/02 14:04:55;;;;;;;16.23;7.22;;;;;;;;;;5009129;28;20021;-69
2023/03/02 14:07:20;;;;;;;9.00;6.43;;;;;;;;;;4999584;28;20080;-69
2023/03/02 14:09:46;;;;;;;12.68;6.82;;;;;;;;;;5010105;28;20897;-69
2023/03/02 14:12:31;;;;;;;9.40;6.18;;;;;;;;;;5018839;28;20489;-68
2023/03/02 14:14:58;;;;;;;14.18;7.60;;;;;;;;;;5022895;28;20025;-69
2023/03/02 14:17:24;;;;;;;10.88;6.63;;;;;;;;;;5007961;28;20029;-69
2023/03/02 14:19:51;;;;;;;8.73;5.95;;;;;;;;;;5006846;28;20864;-69
2023/03/02 14:22:21;;;;;;;9.15;6.03;;;;;;;;;;5007889;28;20044;-68
2023/03/02 14:24:47;;;;;;;8.55;5.25;;;;;;;;;;5028646;28;20129;-69
2023/03/02 14:27:15;;;;;;;10.82;6.47;;;;;;;;;;5014643;28;20860;-68
2023/03/02 14:29:41;;;;;;;11.68;5.88;;;;;;;;;;5010618;28;20115;-69